createdAt,value
2018-09-24T00:01:32.892Z,99.90
2018-09-24T00:04:00.938Z,99.90
2018-09-24T00:06:29.101Z,99.90
2018-09-24T00:08:57.144Z,99.90
2018-09-24T00:11:25.180Z,99.90
2018-09-24T00:13:53.222Z,99.90
2018-09-24T00:16:21.258Z,99.90
2018-09-24T00:18:49.311Z,99.90
2018-09-24T00:21:17.410Z,99.90
2018-09-24T00:23:45.446Z,99.90
2018-09-24T00:26:13.510Z,99.90
2018-09-24T00:28:41.554Z,99.90
2018-09-24T00:31:09.596Z,99.90
2018-09-24T00:33:37.655Z,99.90
2018-09-24T00:36:05.727Z,99.90
2018-09-24T00:38:33.792Z,99.90
2018-09-24T00:41:01.852Z,99.90
2018-09-24T00:43:29.897Z,99.90
2018-09-24T00:45:57.918Z,99.90
2018-09-24T00:48:25.960Z,99.90
2018-09-24T00:50:53.991Z,99.90
2018-09-24T00:53:22.026Z,99.90
2018-09-24T00:55:50.095Z,99.90
2018-09-24T00:58:18.136Z,99.90
2018-09-24T01:00:46.182Z,99.90
2018-09-24T01:03:14.263Z,99.90
2018-09-24T01:05:42.295Z,99.90
2018-09-24T01:08:10.330Z,99.90
2018-09-24T01:10:38.386Z,99.90
2018-09-24T01:13:06.425Z,99.90
2018-09-24T01:15:34.477Z,99.90
2018-09-24T01:18:02.514Z,99.90
2018-09-24T01:20:30.561Z,99.90
2018-09-24T01:22:58.604Z,99.90
2018-09-24T01:25:26.646Z,99.90
2018-09-24T01:27:54.691Z,99.90
2018-09-24T01:30:22.739Z,99.90
2018-09-24T01:32:50.800Z,99.90
2018-09-24T01:35:18.843Z,99.90
2018-09-24T01:37:46.874Z,99.90
2018-09-24T01:40:14.931Z,99.90
2018-09-24T01:42:42.967Z,99.90
2018-09-24T01:45:11.011Z,99.90
2018-09-24T01:47:39.061Z,99.90
2018-09-24T01:50:07.110Z,99.90
2018-09-24T01:52:35.148Z,99.90
2018-09-24T01:55:03.196Z,99.90
2018-09-24T01:57:31.227Z,99.90
2018-09-24T01:59:59.272Z,99.90
2018-09-24T02:02:27.323Z,99.90
2018-09-24T02:04:55.361Z,99.90
2018-09-24T02:07:23.407Z,99.90
2018-09-24T02:09:51.447Z,99.90
2018-09-24T02:12:19.479Z,99.90
2018-09-24T02:14:47.517Z,99.90
2018-09-24T02:17:16.492Z,99.90
2018-09-24T02:19:45.287Z,99.90
2018-09-24T02:22:13.755Z,99.90
2018-09-24T02:24:41.852Z,99.90
2018-09-24T02:27:11.038Z,99.90
2018-09-24T02:29:39.616Z,99.90
2018-09-24T02:32:07.673Z,99.90
2018-09-24T02:34:35.738Z,99.90
2018-09-24T02:37:03.787Z,99.90
2018-09-24T02:39:31.842Z,99.90
2018-09-24T02:41:59.880Z,99.90
2018-09-24T02:44:28.355Z,99.90
2018-09-24T02:46:56.387Z,99.90
2018-09-24T02:49:24.437Z,99.90
2018-09-24T02:51:52.668Z,99.90
2018-09-24T02:54:20.719Z,99.90
2018-09-24T02:56:50.848Z,99.90
2018-09-24T02:59:19.262Z,99.90
2018-09-24T03:01:47.291Z,99.90
2018-09-24T03:04:15.332Z,99.90
2018-09-24T03:06:43.374Z,99.90
2018-09-24T03:09:15.613Z,99.90
2018-09-24T03:11:44.088Z,99.90
2018-09-24T03:14:12.136Z,99.90
2018-09-24T03:16:40.164Z,99.90
2018-09-24T03:19:08.201Z,99.90
2018-09-24T03:21:36.247Z,99.90
2018-09-24T03:24:04.280Z,99.90
2018-09-24T03:26:32.317Z,99.90
2018-09-24T03:29:00.359Z,99.90
2018-09-24T03:31:29.483Z,99.90
2018-09-24T03:33:57.533Z,99.90
2018-09-24T03:36:25.568Z,99.90
2018-09-24T03:38:53.616Z,99.90
2018-09-24T03:41:21.668Z,99.90
2018-09-24T03:43:49.707Z,99.90
2018-09-24T03:46:17.752Z,99.90
2018-09-24T03:48:45.792Z,99.90
2018-09-24T03:51:13.839Z,99.90
2018-09-24T03:53:41.880Z,99.90
2018-09-24T03:56:09.920Z,99.90
2018-09-24T03:58:37.962Z,99.90
2018-09-24T04:01:06.003Z,99.90
2018-09-24T04:03:34.034Z,99.90
2018-09-24T04:06:07.623Z,99.90
2018-09-24T04:08:41.145Z,99.90
2018-09-24T04:11:14.639Z,99.90
2018-09-24T04:13:48.287Z,99.90
2018-09-24T04:16:21.744Z,99.90
2018-09-24T04:18:55.152Z,99.90
2018-09-24T04:21:28.603Z,99.90
2018-09-24T04:24:02.232Z,99.90
2018-09-24T04:26:35.726Z,99.90
2018-09-24T04:29:09.271Z,99.90
2018-09-24T04:31:42.768Z,99.90
2018-09-24T04:34:16.345Z,99.90
2018-09-24T04:36:49.806Z,99.90
2018-09-24T04:39:23.380Z,99.90
2018-09-24T04:41:57.011Z,99.90
2018-09-24T04:44:30.627Z,99.90
2018-09-24T04:47:03.967Z,99.90
2018-09-24T04:49:37.511Z,99.90
2018-09-24T04:52:11.083Z,99.90
2018-09-24T04:54:44.728Z,99.90
2018-09-24T04:57:18.383Z,99.90
2018-09-24T04:59:52.001Z,99.90
2018-09-24T05:02:25.601Z,99.90
2018-09-24T05:04:59.196Z,99.90
2018-09-24T05:07:32.801Z,99.90
2018-09-24T05:10:06.116Z,99.90
2018-09-24T05:12:39.567Z,99.90
2018-09-24T05:15:12.955Z,99.90
2018-09-24T05:17:46.613Z,99.90
2018-09-24T05:20:20.192Z,99.90
2018-09-24T05:22:53.824Z,99.90
2018-09-24T05:25:27.272Z,99.90
2018-09-24T05:28:00.911Z,99.90
2018-09-24T05:30:34.405Z,99.90
2018-09-24T05:33:08.090Z,99.90
2018-09-24T05:35:41.582Z,99.90
2018-09-24T05:38:15.020Z,99.90
2018-09-24T05:40:48.566Z,99.90
2018-09-24T05:43:22.171Z,99.90
2018-09-24T05:46:02.744Z,99.90
2018-09-24T05:48:36.375Z,99.90
2018-09-24T05:51:10.080Z,99.90
2018-09-24T05:53:43.659Z,99.90
2018-09-24T05:56:17.099Z,99.90
2018-09-24T05:58:50.761Z,99.90
2018-09-24T06:01:24.382Z,99.90
2018-09-24T06:03:57.968Z,99.90
2018-09-24T06:06:31.583Z,99.90
2018-09-24T06:09:05.275Z,99.90
2018-09-24T06:11:38.872Z,99.90
2018-09-24T06:14:12.347Z,99.90
2018-09-24T06:16:45.973Z,99.90
2018-09-24T06:19:19.457Z,99.90
2018-09-24T06:21:53.071Z,99.90
2018-09-24T06:24:26.544Z,99.90
2018-09-24T06:27:00.284Z,99.90
2018-09-24T06:29:33.870Z,99.90
2018-09-24T06:32:07.505Z,99.90
2018-09-24T06:34:41.076Z,99.90
2018-09-24T06:37:14.700Z,99.90
2018-09-24T06:39:48.258Z,99.90
2018-09-24T06:42:21.886Z,99.90
2018-09-24T06:44:55.445Z,99.90
2018-09-24T06:47:28.959Z,99.90
2018-09-24T06:50:02.411Z,99.90
2018-09-24T06:52:35.848Z,99.90
2018-09-24T06:55:09.315Z,99.90
2018-09-24T06:57:42.798Z,99.90
2018-09-24T07:00:16.236Z,99.90
2018-09-24T07:02:49.879Z,99.90
2018-09-24T07:05:23.497Z,99.90
2018-09-24T07:07:56.936Z,99.90
2018-09-24T07:10:30.363Z,99.90
2018-09-24T07:13:03.784Z,99.90
2018-09-24T07:15:37.264Z,99.90
2018-09-24T07:18:10.589Z,99.90
2018-09-24T07:20:44.049Z,99.90
2018-09-24T07:23:17.756Z,99.90
2018-09-24T07:25:51.301Z,99.90
2018-09-24T07:28:25.057Z,99.90
2018-09-24T07:30:58.509Z,99.90
2018-09-24T07:33:32.159Z,99.90
2018-09-24T07:36:05.763Z,99.90
2018-09-24T07:38:39.355Z,99.90
2018-09-24T07:41:13.020Z,99.90
2018-09-24T07:43:46.531Z,99.00
2018-09-24T07:46:20.042Z,97.70
2018-09-24T07:48:53.479Z,97.90
2018-09-24T07:51:27.181Z,98.70
2018-09-24T07:54:00.592Z,99.10
2018-09-24T07:56:33.967Z,98.70
2018-09-24T07:59:07.606Z,98.00
2018-09-24T08:01:40.971Z,97.10
2018-09-24T08:04:14.552Z,97.10
2018-09-24T08:06:48.176Z,97.70
2018-09-24T08:09:21.836Z,97.70
2018-09-24T08:11:55.399Z,97.20
2018-09-24T08:14:28.835Z,96.20
2018-09-24T08:17:02.444Z,97.50
2018-09-24T08:19:36.003Z,98.30
2018-09-24T08:22:09.766Z,96.60
2018-09-24T08:24:43.299Z,96.10
2018-09-24T08:27:16.819Z,96.10
2018-09-24T08:29:50.429Z,94.70
2018-09-24T08:32:23.918Z,94.50
2018-09-24T08:34:57.360Z,96.60
2018-09-24T08:37:30.839Z,97.70
2018-09-24T08:40:04.292Z,99.90
2018-09-24T08:42:37.912Z,99.90
2018-09-24T08:45:11.295Z,99.80
2018-09-24T08:47:44.949Z,98.70
2018-09-24T08:50:18.446Z,97.00
2018-09-24T08:52:51.895Z,95.20
2018-09-24T08:55:25.299Z,94.70
2018-09-24T08:57:58.901Z,93.90
2018-09-24T09:00:32.557Z,93.60
2018-09-24T09:03:06.004Z,93.10
2018-09-24T09:05:39.481Z,93.30
2018-09-24T09:08:13.007Z,92.30
2018-09-24T09:10:46.612Z,90.40
2018-09-24T09:13:20.091Z,89.10
2018-09-24T09:15:53.683Z,90.40
2018-09-24T09:18:27.256Z,89.00
2018-09-24T09:21:00.908Z,90.00
2018-09-24T09:23:34.544Z,90.60
2018-09-24T09:26:08.144Z,89.40
2018-09-24T09:28:41.716Z,88.70
2018-09-24T09:31:15.184Z,88.50
2018-09-24T09:33:48.647Z,90.40
2018-09-24T09:36:22.095Z,90.50
2018-09-24T09:38:55.598Z,97.10
2018-09-24T09:41:29.028Z,96.50
2018-09-24T09:44:02.706Z,98.20
2018-09-24T09:46:36.088Z,97.40
2018-09-24T09:49:09.757Z,97.30
2018-09-24T09:51:43.236Z,98.20
2018-09-24T09:54:16.865Z,97.20
2018-09-24T09:56:50.476Z,97.50
2018-09-24T09:59:24.104Z,95.00
2018-09-24T10:01:57.643Z,92.70
2018-09-24T10:04:31.306Z,93.00
2018-09-24T10:07:04.807Z,91.40
2018-09-24T10:09:38.479Z,90.90
2018-09-24T10:12:12.067Z,86.70
2018-09-24T10:14:45.572Z,86.40
2018-09-24T10:17:19.198Z,87.80
2018-09-24T10:19:52.847Z,91.30
2018-09-24T10:22:26.383Z,90.90
2018-09-24T10:24:59.984Z,90.50
2018-09-24T10:27:33.470Z,89.20
2018-09-24T10:30:07.111Z,91.00
2018-09-24T10:32:40.599Z,92.10
2018-09-24T10:35:14.052Z,93.30
2018-09-24T10:37:47.519Z,94.90
2018-09-24T10:40:21.059Z,94.20
2018-09-24T10:42:54.660Z,96.10
2018-09-24T10:45:28.255Z,96.80
2018-09-24T10:48:01.888Z,98.50
2018-09-24T10:50:35.490Z,98.60
2018-09-24T10:53:09.208Z,96.40
2018-09-24T10:55:42.815Z,94.00
2018-09-24T10:58:16.268Z,93.60
2018-09-24T11:00:49.856Z,92.10
2018-09-24T11:03:23.587Z,90.40
2018-09-24T11:05:57.051Z,91.50
2018-09-24T11:08:30.564Z,90.50
2018-09-24T11:11:04.200Z,91.00
2018-09-24T11:13:37.897Z,92.80
2018-09-24T11:16:11.716Z,94.10
2018-09-24T11:18:44.917Z,94.00
2018-09-24T11:21:18.487Z,95.30
2018-09-24T11:23:52.172Z,96.80
2018-09-24T11:28:59.304Z,98.70
2018-09-24T11:31:33.050Z,98.60
2018-09-24T11:34:06.445Z,98.50
2018-09-24T11:36:39.912Z,98.90
2018-09-24T11:39:14.065Z,99.20
2018-09-24T11:41:47.758Z,99.20
2018-09-24T11:44:21.400Z,99.20
2018-09-24T11:46:55.134Z,97.90
2018-09-24T11:49:28.694Z,96.70
2018-09-24T11:52:02.197Z,97.10
2018-09-24T11:54:35.680Z,97.40
2018-09-24T11:57:09.164Z,99.90
2018-09-24T11:59:42.764Z,99.90
2018-09-24T12:02:16.264Z,99.90
2018-09-24T12:04:49.763Z,99.90
2018-09-24T12:07:23.252Z,99.90
2018-09-24T12:09:56.747Z,99.90
2018-09-24T12:12:30.227Z,99.90
2018-09-24T12:15:03.739Z,99.90
2018-09-24T12:17:37.313Z,99.90
2018-09-24T12:20:10.699Z,99.90
2018-09-24T12:22:44.370Z,99.90
2018-09-24T12:25:17.997Z,99.90
2018-09-24T12:27:51.510Z,99.90
2018-09-24T12:30:25.200Z,99.90
2018-09-24T12:32:58.647Z,99.90
2018-09-24T12:35:32.223Z,99.90
2018-09-24T12:38:05.724Z,99.90
2018-09-24T12:40:39.252Z,99.90
2018-09-24T12:43:12.733Z,99.90
2018-09-24T12:45:46.276Z,99.90
2018-09-24T12:48:19.881Z,99.90
2018-09-24T12:50:53.464Z,99.90
2018-09-24T12:53:26.935Z,99.90
2018-09-24T12:56:00.342Z,99.90
2018-09-24T12:58:33.808Z,99.90
2018-09-24T13:01:07.399Z,99.90
2018-09-24T13:03:41.015Z,99.90
2018-09-24T13:06:14.655Z,99.90
2018-09-24T13:08:48.093Z,99.90
2018-09-24T13:11:21.556Z,99.90
2018-09-24T13:13:55.042Z,99.90
2018-09-24T13:16:28.677Z,99.90
2018-09-24T13:19:02.355Z,99.90
2018-09-24T13:21:35.753Z,99.90
2018-09-24T13:24:09.347Z,99.90
2018-09-24T13:26:42.963Z,99.90
2018-09-24T13:29:16.414Z,99.90
2018-09-24T13:31:50.071Z,99.90
2018-09-24T13:34:23.643Z,99.90
2018-09-24T13:36:57.154Z,99.90
2018-09-24T13:39:30.748Z,99.90
2018-09-24T13:42:04.431Z,99.90
2018-09-24T13:44:38.013Z,99.90
2018-09-24T13:47:11.755Z,99.90
2018-09-24T13:49:45.084Z,99.90
2018-09-24T13:52:18.668Z,99.90
2018-09-24T13:54:52.099Z,99.90
2018-09-24T13:57:25.626Z,99.90
2018-09-24T13:59:59.136Z,99.90
2018-09-24T14:02:32.675Z,99.90
2018-09-24T14:05:06.459Z,99.90
2018-09-24T14:07:40.032Z,99.90
2018-09-24T14:10:13.552Z,99.90
2018-09-24T14:12:47.166Z,99.90
2018-09-24T14:15:20.830Z,99.90
2018-09-24T14:17:54.443Z,99.90
2018-09-24T14:20:27.883Z,99.90
2018-09-24T14:23:02.086Z,99.90
2018-09-24T14:25:35.701Z,99.90
2018-09-24T14:28:09.381Z,99.90
2018-09-24T14:30:42.924Z,99.90
2018-09-24T14:33:16.383Z,99.90
2018-09-24T14:35:49.880Z,99.90
2018-09-24T14:38:23.379Z,99.90
2018-09-24T14:40:56.935Z,99.90
2018-09-24T14:43:30.440Z,99.90
2018-09-24T14:46:03.893Z,99.90
2018-09-24T14:48:37.250Z,99.90
2018-09-24T14:51:10.691Z,99.90
2018-09-24T14:53:44.322Z,99.90
2018-09-24T14:56:17.875Z,99.90
2018-09-24T14:58:51.419Z,99.90
2018-09-24T15:01:24.903Z,99.90
2018-09-24T15:03:58.321Z,99.90
2018-09-24T15:06:31.944Z,99.90
2018-09-24T15:09:05.568Z,99.90
2018-09-24T15:11:39.016Z,99.90
2018-09-24T15:14:12.600Z,99.90
2018-09-24T15:16:46.123Z,99.90
2018-09-24T15:19:19.729Z,99.90
2018-09-24T15:21:53.347Z,99.90
2018-09-24T15:24:26.987Z,99.90
2018-09-24T15:27:00.533Z,99.90
2018-09-24T15:29:34.115Z,99.90
2018-09-24T15:32:07.691Z,99.90
2018-09-24T15:34:41.171Z,99.90
2018-09-24T15:37:14.587Z,99.90
2018-09-24T15:39:47.946Z,99.90
2018-09-24T15:42:21.479Z,99.90
2018-09-24T15:44:55.149Z,99.90
2018-09-24T15:47:28.720Z,99.90
2018-09-24T15:50:02.053Z,99.90
2018-09-24T15:52:35.707Z,99.90
2018-09-24T15:55:09.359Z,99.90
2018-09-24T15:57:42.852Z,99.90
2018-09-24T16:00:16.376Z,99.90
2018-09-24T16:02:50.079Z,99.90
2018-09-24T16:05:23.574Z,99.90
2018-09-24T16:07:57.207Z,99.90
2018-09-24T16:10:30.685Z,99.90
2018-09-24T16:13:04.239Z,99.90
2018-09-24T16:15:37.920Z,99.90
2018-09-24T16:18:11.524Z,99.90
2018-09-24T16:20:45.044Z,99.90
2018-09-24T16:23:18.776Z,99.90
2018-09-24T16:25:52.276Z,99.90
2018-09-24T16:28:25.891Z,99.90
2018-09-24T16:30:59.512Z,99.90
2018-09-24T16:33:33.090Z,99.90
2018-09-24T16:36:06.809Z,99.90
2018-09-24T16:38:40.272Z,99.90
2018-09-24T16:41:13.920Z,99.90
2018-09-24T16:43:47.472Z,99.90
2018-09-24T16:46:21.095Z,99.90
2018-09-24T16:48:54.727Z,99.90
2018-09-24T16:51:28.371Z,99.90
2018-09-24T16:54:01.888Z,99.90
2018-09-24T16:56:35.612Z,99.90
2018-09-24T16:59:09.090Z,99.90
2018-09-24T17:01:42.699Z,99.90
2018-09-24T17:04:16.192Z,99.90
2018-09-24T17:06:49.543Z,99.90
2018-09-24T17:09:23.101Z,99.90
2018-09-24T17:11:56.565Z,99.90
2018-09-24T17:14:30.024Z,99.90
2018-09-24T17:17:03.499Z,99.90
2018-09-24T17:19:36.951Z,99.90
2018-09-24T17:22:10.484Z,99.90
2018-09-24T17:24:44.083Z,99.90
2018-09-24T17:27:17.559Z,99.90
2018-09-24T17:29:50.995Z,99.90
2018-09-24T17:32:24.560Z,99.90
2018-09-24T17:34:58.188Z,99.90
2018-09-24T17:37:31.496Z,99.90
2018-09-24T17:40:05.080Z,99.90
2018-09-24T17:42:38.644Z,99.90
2018-09-24T17:45:12.188Z,99.90
2018-09-24T17:47:45.751Z,99.90
2018-09-24T17:50:19.332Z,99.90
2018-09-24T17:52:52.828Z,99.90
2018-09-24T17:55:26.347Z,99.90
2018-09-24T17:57:59.669Z,99.90
2018-09-24T18:00:33.254Z,99.90
2018-09-24T18:03:06.867Z,99.90
2018-09-24T18:05:40.407Z,99.90
2018-09-24T18:08:13.986Z,99.90
2018-09-24T18:10:47.636Z,99.90
2018-09-24T18:13:21.005Z,99.90
2018-09-24T18:15:54.536Z,99.90
2018-09-24T18:18:28.156Z,99.90
2018-09-24T18:21:01.716Z,99.90
2018-09-24T18:23:35.239Z,99.90
2018-09-24T18:26:08.838Z,99.90
2018-09-24T18:28:42.277Z,99.90
2018-09-24T18:31:15.766Z,99.90
2018-09-24T18:33:49.258Z,99.90
2018-09-24T18:36:22.728Z,99.90
2018-09-24T18:38:56.275Z,99.90
2018-09-24T18:41:29.848Z,99.90
2018-09-24T18:44:03.530Z,99.90
2018-09-24T18:46:37.151Z,99.90
2018-09-24T18:49:10.672Z,99.90
2018-09-24T18:51:44.303Z,99.90
2018-09-24T18:54:17.739Z,99.90
2018-09-24T18:56:51.345Z,99.90
2018-09-24T18:59:25.037Z,99.90
2018-09-24T19:01:58.519Z,99.90
2018-09-24T19:04:32.120Z,99.90
2018-09-24T19:07:05.419Z,99.90
2018-09-24T19:09:38.792Z,99.90
2018-09-24T19:12:12.280Z,99.90
2018-09-24T19:14:45.898Z,99.90
2018-09-24T19:17:19.319Z,99.90
2018-09-24T19:19:52.894Z,99.90
2018-09-24T19:22:26.507Z,99.90
2018-09-24T19:25:00.012Z,99.90
2018-09-24T19:27:33.487Z,99.90
2018-09-24T19:30:07.025Z,99.90
2018-09-24T19:32:40.726Z,99.90
2018-09-24T19:35:14.208Z,99.90
2018-09-24T19:37:47.591Z,99.90
2018-09-24T19:40:21.303Z,99.90
2018-09-24T19:42:54.780Z,99.90
2018-09-24T19:45:28.178Z,99.90
2018-09-24T19:48:01.789Z,99.90
2018-09-24T19:50:35.388Z,99.90
2018-09-24T19:53:08.955Z,99.90
2018-09-24T19:55:42.493Z,99.90
2018-09-24T19:58:16.106Z,99.90
2018-09-24T20:00:49.560Z,99.90
2018-09-24T20:03:23.232Z,99.90
2018-09-24T20:05:56.917Z,99.90
2018-09-24T20:08:30.616Z,99.90
2018-09-24T20:11:04.263Z,99.90
2018-09-24T20:13:37.896Z,99.90
2018-09-24T20:16:11.444Z,99.90
2018-09-24T20:18:45.232Z,99.90
2018-09-24T20:21:18.912Z,99.90
2018-09-24T20:23:52.472Z,99.90
2018-09-24T20:26:25.976Z,99.90
2018-09-24T20:28:59.604Z,99.90
2018-09-24T20:31:33.183Z,99.90
2018-09-24T20:34:06.680Z,99.90
2018-09-24T20:36:40.340Z,99.90
2018-09-24T20:39:14.263Z,99.90
2018-09-24T20:41:48.142Z,99.90
2018-09-24T20:44:21.843Z,99.90
2018-09-24T20:46:55.534Z,99.90
2018-09-24T20:49:29.148Z,99.90
2018-09-24T20:52:02.724Z,99.90
2018-09-24T20:54:36.176Z,99.90
2018-09-24T20:57:09.805Z,99.90
2018-09-24T20:59:43.317Z,99.90
2018-09-24T21:02:16.943Z,99.90
2018-09-24T21:04:50.410Z,99.90
2018-09-24T21:07:23.892Z,99.90
2018-09-24T21:09:57.521Z,99.90
2018-09-24T21:12:31.129Z,99.90
2018-09-24T21:15:04.596Z,99.90
2018-09-24T21:17:38.103Z,99.90
2018-09-24T21:20:11.604Z,99.90
2018-09-24T21:22:45.242Z,99.90
2018-09-24T21:25:18.818Z,99.90
2018-09-24T21:27:52.395Z,99.90
2018-09-24T21:30:25.928Z,99.90
2018-09-24T21:32:59.547Z,99.90
2018-09-24T21:35:33.215Z,99.90
2018-09-24T21:38:06.512Z,99.90
2018-09-24T21:40:39.964Z,99.90
2018-09-24T21:43:13.612Z,99.90
2018-09-24T21:45:47.156Z,99.90
2018-09-24T21:48:20.663Z,99.90
2018-09-24T21:50:54.267Z,99.90
2018-09-24T21:53:27.851Z,99.90
2018-09-24T21:56:01.349Z,99.90
2018-09-24T21:58:34.877Z,99.90
2018-09-24T22:01:08.540Z,99.90
2018-09-24T22:03:42.176Z,99.90
2018-09-24T22:06:15.488Z,99.90
2018-09-24T22:08:49.090Z,99.90
2018-09-24T22:11:22.573Z,99.90
2018-09-24T22:13:56.159Z,99.90
2018-09-24T22:16:29.766Z,99.90
2018-09-24T22:19:03.398Z,99.90
2018-09-24T22:21:36.911Z,99.90
2018-09-24T22:24:10.400Z,99.90
2018-09-24T22:26:43.789Z,99.90
2018-09-24T22:29:17.303Z,99.90
2018-09-24T22:31:50.860Z,99.90
2018-09-24T22:34:24.255Z,99.90
2018-09-24T22:36:57.563Z,99.90
2018-09-24T22:39:31.129Z,99.90
2018-09-24T22:42:04.620Z,99.90
2018-09-24T22:44:38.268Z,99.90
2018-09-24T22:47:11.704Z,99.90
2018-09-24T22:49:45.150Z,99.90
2018-09-24T22:52:18.636Z,99.90
2018-09-24T22:54:52.081Z,99.90
2018-09-24T22:57:25.396Z,99.90
2018-09-24T22:59:58.912Z,99.90
2018-09-24T23:02:32.570Z,99.90
2018-09-24T23:05:06.172Z,99.90
2018-09-24T23:07:39.703Z,99.90
2018-09-24T23:10:13.147Z,99.90
2018-09-24T23:12:46.757Z,99.90
2018-09-24T23:15:20.055Z,99.90
2018-09-24T23:17:53.630Z,99.90
2018-09-24T23:20:27.260Z,99.90
2018-09-24T23:23:00.959Z,99.90
2018-09-24T23:25:34.401Z,99.90
2018-09-24T23:28:07.897Z,99.90
2018-09-24T23:30:41.292Z,99.90
2018-09-24T23:33:14.780Z,99.90
2018-09-24T23:35:48.452Z,99.90
2018-09-24T23:38:21.931Z,99.90
2018-09-24T23:40:55.411Z,99.90
2018-09-24T23:43:29.011Z,99.90
2018-09-24T23:46:02.616Z,99.90
2018-09-24T23:48:36.266Z,99.90
2018-09-24T23:51:09.709Z,99.90
2018-09-24T23:53:43.343Z,99.90
2018-09-24T23:56:16.949Z,99.90
2018-09-24T23:58:50.635Z,99.90
